createdAt,value
2022-09-23T00:00:25.032Z,9.06
2022-09-23T00:02:57.610Z,9.05
2022-09-23T00:05:27.234Z,9.04
2022-09-23T00:07:57.849Z,9.04
2022-09-23T00:10:28.785Z,9.03
2022-09-23T00:13:01.204Z,9.04
2022-09-23T00:15:31.366Z,9.05
2022-09-23T00:18:00.986Z,9.07
2022-09-23T00:20:32.119Z,9.11
2022-09-23T00:23:01.686Z,9.13
2022-09-23T00:25:32.056Z,9.17
2022-09-23T00:28:04.729Z,9.20
2022-09-23T00:30:34.328Z,9.20
2022-09-23T00:33:03.927Z,9.21
2022-09-23T00:35:33.457Z,9.21
2022-09-23T00:38:02.996Z,9.20
2022-09-23T00:40:32.735Z,9.18
2022-09-23T00:43:05.040Z,9.16
2022-09-23T00:45:35.129Z,9.15
2022-09-23T00:48:05.949Z,9.14
2022-09-23T00:50:37.792Z,9.14
2022-09-23T00:53:10.153Z,9.14
2022-09-23T00:55:43.079Z,9.13
2022-09-23T00:58:18.553Z,9.13
2022-09-23T01:00:48.379Z,9.15
2022-09-23T01:03:19.676Z,9.17
2022-09-23T01:05:49.750Z,9.17
2022-09-23T01:08:19.620Z,9.17
2022-09-23T01:10:55.280Z,9.18
2022-09-23T01:13:32.163Z,9.18
2022-09-23T01:16:08.872Z,9.16
2022-09-23T01:18:44.235Z,9.16
2022-09-23T01:21:21.684Z,9.14
2022-09-23T01:24:11.269Z,9.13
2022-09-23T01:26:56.669Z,9.11
2022-09-23T01:29:54.878Z,9.08
2022-09-23T01:32:37.234Z,9.04
2022-09-23T01:35:10.456Z,9.00
2022-09-23T01:37:44.408Z,9.00
2022-09-23T01:40:19.525Z,9.00
2022-09-23T01:42:53.004Z,8.96
2022-09-23T01:45:27.278Z,8.94
2022-09-23T01:48:00.180Z,8.89
2022-09-23T01:50:57.847Z,8.84
2022-09-23T01:53:33.036Z,8.83
2022-09-23T01:56:06.093Z,8.86
2022-09-23T01:58:39.971Z,8.92
2022-09-23T02:01:10.770Z,8.99
2022-09-23T02:03:45.925Z,9.03
2022-09-23T02:06:17.897Z,9.02
2022-09-23T02:08:51.092Z,9.03
2022-09-23T02:11:22.128Z,9.06
2022-09-23T02:13:55.960Z,9.09
2022-09-23T02:16:29.857Z,9.11
2022-09-23T02:19:05.249Z,9.14
2022-09-23T02:21:37.945Z,9.15
2022-09-23T02:24:13.041Z,9.14
2022-09-23T02:26:48.682Z,9.14
2022-09-23T02:29:23.673Z,9.17
2022-09-23T02:31:59.098Z,9.18
2022-09-23T02:34:43.679Z,9.17
2022-09-23T02:37:14.617Z,9.17
2022-09-23T02:39:53.807Z,9.17
2022-09-23T02:42:24.997Z,9.15
2022-09-23T02:44:54.525Z,9.16
2022-09-23T02:47:26.977Z,9.20
2022-09-23T02:49:59.080Z,9.22
2022-09-23T02:52:28.772Z,9.22
2022-09-23T02:54:58.896Z,9.27
2022-09-23T02:57:28.459Z,9.28
2022-09-23T02:59:58.478Z,9.30
2022-09-23T03:02:43.605Z,9.31
2022-09-23T03:05:23.928Z,9.32
2022-09-23T03:08:09.782Z,9.32
2022-09-23T03:10:45.927Z,9.35
2022-09-23T03:13:19.830Z,9.35
2022-09-23T03:15:53.376Z,9.35
2022-09-23T03:18:31.651Z,9.34
2022-09-23T03:21:06.902Z,9.34
2022-09-23T03:23:38.488Z,9.34
2022-09-23T03:26:11.912Z,9.31
2022-09-23T03:28:44.038Z,9.30
2022-09-23T03:31:14.475Z,9.28
2022-09-23T03:33:48.039Z,9.25
2022-09-23T03:36:37.935Z,9.22
2022-09-23T03:39:11.414Z,9.18
2022-09-23T03:41:44.724Z,9.15
2022-09-23T03:44:14.866Z,9.11
2022-09-23T03:46:49.700Z,9.07
2022-09-23T03:49:20.846Z,9.03
2022-09-23T03:51:53.025Z,8.99
2022-09-23T03:54:23.244Z,8.96
2022-09-23T03:56:52.960Z,8.94
2022-09-23T03:59:22.982Z,8.91
2022-09-23T04:01:52.778Z,8.89
2022-09-23T04:04:22.513Z,8.87
2022-09-23T04:06:54.805Z,8.83
2022-09-23T04:09:25.003Z,8.78
2022-09-23T04:11:54.794Z,8.74
2022-09-23T04:14:25.910Z,8.72
2022-09-23T04:16:55.464Z,8.68
2022-09-23T04:19:25.340Z,8.63
2022-09-23T04:21:57.632Z,8.58
2022-09-23T04:24:27.355Z,8.53
2022-09-23T04:26:58.373Z,8.47
2022-09-23T04:29:28.469Z,8.41
2022-09-23T04:31:58.335Z,8.37
2022-09-23T04:34:27.891Z,8.37
2022-09-23T04:37:00.073Z,8.38
2022-09-23T04:39:29.722Z,8.38
2022-09-23T04:41:59.704Z,8.38
2022-09-23T04:44:29.581Z,8.37
2022-09-23T04:46:59.149Z,8.37
2022-09-23T04:49:32.460Z,8.40
2022-09-23T04:52:05.445Z,8.40
2022-09-23T04:54:35.121Z,8.40
2022-09-23T04:57:04.676Z,8.39
2022-09-23T04:59:34.439Z,8.41
2022-09-23T05:02:04.055Z,8.41
2022-09-23T05:04:33.643Z,8.38
2022-09-23T05:07:05.833Z,8.40
2022-09-23T05:09:35.401Z,8.41
2022-09-23T05:12:05.417Z,8.40
2022-09-23T05:14:35.001Z,8.38
2022-09-23T05:17:04.554Z,8.37
2022-09-23T05:19:34.132Z,8.39
2022-09-23T05:22:06.218Z,8.41
2022-09-23T05:24:35.718Z,8.44
2022-09-23T05:27:07.313Z,8.45
2022-09-23T05:29:36.871Z,8.46
2022-09-23T05:32:06.432Z,8.48
2022-09-23T05:34:35.914Z,8.51
2022-09-23T05:37:08.064Z,8.54
2022-09-23T05:39:37.614Z,8.57
2022-09-23T05:42:08.630Z,8.61
2022-09-23T05:44:39.176Z,8.67
2022-09-23T05:47:09.221Z,8.71
2022-09-23T05:49:58.469Z,8.76
2022-09-23T05:52:31.149Z,8.82
2022-09-23T05:55:00.636Z,8.89
2022-09-23T05:57:30.256Z,8.93
2022-09-23T05:59:59.795Z,9.01
2022-09-23T06:02:29.405Z,9.10
2022-09-23T06:04:59.015Z,9.19
2022-09-23T06:07:32.664Z,9.26
2022-09-23T06:10:02.415Z,9.33
2022-09-23T06:12:31.955Z,9.39
2022-09-23T06:15:01.525Z,9.45
2022-09-23T06:17:31.217Z,9.49
2022-09-23T06:20:00.908Z,9.56
2022-09-23T06:22:36.146Z,9.63
2022-09-23T06:25:06.876Z,9.71
2022-09-23T06:27:36.487Z,9.79
2022-09-23T06:30:06.716Z,9.87
2022-09-23T06:32:36.361Z,9.96
2022-09-23T06:35:06.380Z,10.09
2022-09-23T06:37:39.238Z,10.26
2022-09-23T06:40:09.909Z,10.48
2022-09-23T06:42:39.521Z,10.72
2022-09-23T06:45:13.100Z,10.99
2022-09-23T06:47:42.696Z,11.29
2022-09-23T06:50:13.977Z,11.65
2022-09-23T06:52:54.868Z,12.10
2022-09-23T06:55:28.031Z,12.58
2022-09-23T06:57:58.008Z,13.12
2022-09-23T07:00:28.575Z,13.82
2022-09-23T07:02:58.225Z,14.86
2022-09-23T07:05:27.844Z,15.96
2022-09-23T07:08:00.306Z,16.78
2022-09-23T07:10:30.928Z,17.54
2022-09-23T07:13:04.095Z,18.27
2022-09-23T07:15:34.098Z,19.18
2022-09-23T07:18:03.666Z,20.03
2022-09-23T07:20:33.176Z,20.73
2022-09-23T07:23:05.762Z,21.41
2022-09-23T07:25:35.247Z,22.00
2022-09-23T07:28:05.438Z,22.43
2022-09-23T07:30:35.106Z,22.87
2022-09-23T07:33:13.402Z,23.13
2022-09-23T07:35:50.512Z,23.30
2022-09-23T07:38:30.377Z,23.25
2022-09-23T07:41:04.762Z,22.87
2022-09-23T07:43:34.631Z,22.34
2022-09-23T07:46:08.331Z,21.83
2022-09-23T07:48:38.707Z,21.33
2022-09-23T07:51:12.135Z,20.80
2022-09-23T07:53:44.259Z,20.32
2022-09-23T07:56:13.964Z,19.83
2022-09-23T07:58:43.496Z,19.40
2022-09-23T08:01:14.122Z,19.08
2022-09-23T08:03:43.904Z,18.83
2022-09-23T08:06:15.414Z,18.65
2022-09-23T08:08:52.539Z,18.48
2022-09-23T08:11:23.785Z,18.23
2022-09-23T08:13:53.310Z,18.05
2022-09-23T08:16:23.323Z,17.91
2022-09-23T08:18:52.928Z,17.87
2022-09-23T08:21:23.075Z,17.87
2022-09-23T08:23:55.170Z,17.85
2022-09-23T08:26:24.716Z,17.89
2022-09-23T08:28:56.514Z,18.05
2022-09-23T08:31:26.417Z,18.34
2022-09-23T08:34:00.321Z,18.70
2022-09-23T08:36:30.202Z,18.84
2022-09-23T08:39:02.475Z,18.99
2022-09-23T08:41:40.679Z,19.09
2022-09-23T08:44:17.283Z,19.00
2022-09-23T08:46:50.144Z,18.85
2022-09-23T08:49:26.743Z,18.97
2022-09-23T08:51:58.267Z,19.24
2022-09-23T08:54:31.343Z,19.57
2022-09-23T08:57:02.795Z,20.02
2022-09-23T08:59:38.011Z,20.63
2022-09-23T09:02:12.016Z,21.27
2022-09-23T09:04:44.422Z,21.77
2022-09-23T09:07:35.663Z,22.13
2022-09-23T09:10:13.904Z,22.19
2022-09-23T09:12:46.357Z,22.24
2022-09-23T09:15:18.376Z,22.20
2022-09-23T09:17:56.814Z,22.11
2022-09-23T09:20:27.490Z,21.85
2022-09-23T09:22:59.863Z,21.50
2022-09-23T09:25:45.111Z,21.18
2022-09-23T09:28:18.992Z,20.89
2022-09-23T09:30:51.745Z,20.69
2022-09-23T09:33:24.757Z,20.56
2022-09-23T09:36:22.113Z,20.48
2022-09-23T09:38:51.761Z,20.33
2022-09-23T09:41:24.660Z,20.12
2022-09-23T09:43:59.358Z,19.87
2022-09-23T09:46:52.067Z,19.65
2022-09-23T09:49:28.555Z,19.62
2022-09-23T09:52:28.801Z,19.67
2022-09-23T09:55:01.254Z,19.67
2022-09-23T09:57:35.953Z,19.72
2022-09-23T10:00:22.247Z,19.88
2022-09-23T10:02:55.563Z,20.06
2022-09-23T10:05:28.542Z,20.19
2022-09-23T10:08:19.305Z,20.32
2022-09-23T10:10:54.881Z,20.31
2022-09-23T10:13:27.303Z,20.26
2022-09-23T10:15:57.715Z,20.21
2022-09-23T10:18:32.009Z,20.22
2022-09-23T10:21:14.448Z,20.17
2022-09-23T10:23:47.895Z,20.15
2022-09-23T10:26:18.461Z,20.14
2022-09-23T10:28:51.442Z,20.14
2022-09-23T10:31:27.007Z,20.09
2022-09-23T10:33:59.762Z,20.02
2022-09-23T10:36:30.013Z,20.01
2022-09-23T10:39:16.709Z,20.04
2022-09-23T10:42:04.351Z,20.15
2022-09-23T10:45:06.791Z,20.31
2022-09-23T10:47:42.695Z,20.53
2022-09-23T10:50:25.019Z,20.69
2022-09-23T10:53:06.366Z,20.70
2022-09-23T10:55:56.315Z,20.71
2022-09-23T10:58:37.991Z,20.72
2022-09-23T11:01:17.600Z,20.67
2022-09-23T11:04:22.183Z,20.48
2022-09-23T11:07:07.409Z,20.32
2022-09-23T11:09:43.914Z,20.15
2022-09-23T11:12:23.656Z,19.99
2022-09-23T11:15:06.490Z,19.86
2022-09-23T11:18:09.750Z,19.77
2022-09-23T11:20:46.531Z,19.70
2022-09-23T11:23:43.759Z,19.65
2022-09-23T11:26:22.482Z,19.58
2022-09-23T11:29:09.169Z,19.52
2022-09-23T11:31:43.161Z,19.47
2022-09-23T11:34:34.220Z,19.37
2022-09-23T11:37:06.881Z,19.23
2022-09-23T11:39:39.411Z,19.17
2022-09-23T11:42:12.396Z,19.14
2022-09-23T11:44:47.472Z,19.11
2022-09-23T11:47:21.801Z,19.10
2022-09-23T11:49:54.598Z,19.12
2022-09-23T11:52:27.378Z,19.19
2022-09-23T11:55:00.152Z,19.27
2022-09-23T11:57:46.469Z,19.34
2022-09-23T12:00:22.605Z,19.39
2022-09-23T12:03:06.575Z,19.44
2022-09-23T12:05:37.290Z,19.40
2022-09-23T12:08:13.516Z,19.34
2022-09-23T12:10:48.667Z,19.38
2022-09-23T12:13:21.835Z,19.48
2022-09-23T12:16:05.200Z,19.59
2022-09-23T12:18:55.766Z,19.64
2022-09-23T12:21:51.303Z,19.66
2022-09-23T12:24:46.870Z,19.74
2022-09-23T12:27:25.735Z,19.85
2022-09-23T12:29:59.892Z,19.91
2022-09-23T12:32:32.024Z,19.96
2022-09-23T12:35:02.808Z,20.03
2022-09-23T12:37:36.702Z,20.06
2022-09-23T12:40:09.321Z,20.10
2022-09-23T12:42:44.178Z,20.10
2022-09-23T12:45:37.343Z,20.12
2022-09-23T12:48:29.890Z,20.20
2022-09-23T12:51:01.596Z,20.32
2022-09-23T12:53:59.689Z,20.40
2022-09-23T12:56:31.714Z,20.43
2022-09-23T12:59:25.180Z,20.48
2022-09-23T13:01:55.270Z,20.47
2022-09-23T13:04:49.335Z,20.44
2022-09-23T13:07:19.969Z,20.40
2022-09-23T13:09:52.005Z,20.36
2022-09-23T13:12:24.740Z,20.35
2022-09-23T13:14:56.265Z,20.33
2022-09-23T13:17:28.840Z,20.29
2022-09-23T13:20:06.083Z,20.26
2022-09-23T13:23:06.520Z,20.21
2022-09-23T13:25:41.992Z,20.08
2022-09-23T13:28:21.672Z,20.00
2022-09-23T13:30:52.855Z,19.91
2022-09-23T13:33:30.148Z,19.81
2022-09-23T13:36:06.779Z,19.75
2022-09-23T13:38:36.417Z,19.76
2022-09-23T13:41:10.073Z,19.82
2022-09-23T13:43:41.654Z,19.88
2022-09-23T13:46:13.345Z,19.86
2022-09-23T13:48:43.874Z,19.82
2022-09-23T13:51:23.360Z,19.73
2022-09-23T13:53:57.528Z,19.64
2022-09-23T13:56:29.051Z,19.57
2022-09-23T13:59:18.973Z,19.50
2022-09-23T14:01:48.696Z,19.42
2022-09-23T14:04:26.439Z,19.35
2022-09-23T14:06:58.738Z,19.25
2022-09-23T14:09:30.964Z,19.20
2022-09-23T14:12:02.622Z,19.17
2022-09-23T14:14:33.010Z,19.13
2022-09-23T14:17:02.619Z,19.12
2022-09-23T14:19:32.393Z,19.11
2022-09-23T14:22:07.140Z,19.10
2022-09-23T14:24:39.427Z,19.09
2022-09-23T14:27:16.287Z,19.05
2022-09-23T14:29:48.198Z,19.02
2022-09-23T14:32:21.135Z,19.00
2022-09-23T14:34:53.335Z,18.99
2022-09-23T14:37:44.044Z,18.94
2022-09-23T14:40:17.762Z,18.92
2022-09-23T14:42:49.184Z,18.88
2022-09-23T14:45:22.115Z,18.83
2022-09-23T14:47:53.678Z,18.77
2022-09-23T14:50:40.593Z,18.73
2022-09-23T14:53:37.779Z,18.70
2022-09-23T14:56:18.595Z,18.63
2022-09-23T14:58:52.895Z,18.55
2022-09-23T15:01:41.337Z,18.46
2022-09-23T15:04:31.163Z,18.36
2022-09-23T15:07:03.844Z,18.29
2022-09-23T15:09:39.776Z,18.24
2022-09-23T15:12:10.762Z,18.17
2022-09-23T15:14:43.452Z,18.12
2022-09-23T15:17:27.931Z,18.04
2022-09-23T15:20:00.384Z,17.99
2022-09-23T15:22:30.106Z,17.94
2022-09-23T15:25:19.465Z,17.89
2022-09-23T15:28:00.330Z,17.85
2022-09-23T15:30:30.528Z,17.80
2022-09-23T15:33:00.479Z,17.73
2022-09-23T15:35:32.035Z,17.67
2022-09-23T15:38:03.267Z,17.59
2022-09-23T15:40:37.417Z,17.52
2022-09-23T15:43:20.575Z,17.46
2022-09-23T15:45:53.317Z,17.41
2022-09-23T15:48:25.276Z,17.38
2022-09-23T15:50:55.534Z,17.35
2022-09-23T15:53:27.097Z,17.31
2022-09-23T15:55:59.246Z,17.28
2022-09-23T15:58:29.302Z,17.23
2022-09-23T16:00:59.852Z,17.21
2022-09-23T16:03:30.957Z,17.18
2022-09-23T16:06:04.170Z,17.15
2022-09-23T16:08:33.719Z,17.09
2022-09-23T16:11:06.228Z,17.04
2022-09-23T16:13:35.796Z,17.00
2022-09-23T16:16:07.926Z,16.94
2022-09-23T16:18:38.212Z,16.91
2022-09-23T16:21:09.462Z,16.86
2022-09-23T16:23:40.268Z,16.82
2022-09-23T16:26:17.138Z,16.79
2022-09-23T16:28:47.461Z,16.75
2022-09-23T16:31:17.271Z,16.72
2022-09-23T16:33:47.425Z,16.67
2022-09-23T16:36:21.045Z,16.62
2022-09-23T16:38:50.783Z,16.57
2022-09-23T16:41:23.317Z,16.52
2022-09-23T16:43:53.536Z,16.47
2022-09-23T16:46:23.906Z,16.42
2022-09-23T16:48:56.195Z,16.35
2022-09-23T16:51:27.101Z,16.28
2022-09-23T16:53:57.925Z,16.20
2022-09-23T16:56:32.047Z,16.14
2022-09-23T16:59:01.685Z,16.06
2022-09-23T17:01:44.491Z,16.00
2022-09-23T17:04:14.864Z,15.92
2022-09-23T17:06:46.363Z,15.85
2022-09-23T17:09:15.922Z,15.80
2022-09-23T17:11:48.910Z,15.74
2022-09-23T17:14:18.631Z,15.67
2022-09-23T17:16:48.252Z,15.61
2022-09-23T17:19:17.841Z,15.55
2022-09-23T17:21:47.374Z,15.52
2022-09-23T17:24:16.963Z,15.49
2022-09-23T17:26:52.839Z,15.45
2022-09-23T17:29:22.905Z,15.40
2022-09-23T17:31:52.876Z,15.35
2022-09-23T17:34:24.042Z,15.31
2022-09-23T17:36:53.575Z,15.24
2022-09-23T17:39:23.119Z,15.19
2022-09-23T17:41:56.081Z,15.13
2022-09-23T17:44:25.932Z,15.05
2022-09-23T17:46:55.490Z,14.96
2022-09-23T17:49:25.067Z,14.87
2022-09-23T17:51:55.797Z,14.79
2022-09-23T17:54:25.427Z,14.70
2022-09-23T17:56:57.551Z,14.61
2022-09-23T17:59:27.272Z,14.52
2022-09-23T18:01:57.126Z,14.46
2022-09-23T18:04:26.755Z,14.39
2022-09-23T18:06:56.272Z,14.32
2022-09-23T18:09:25.982Z,14.27
2022-09-23T18:11:58.219Z,14.19
2022-09-23T18:14:29.397Z,14.14
2022-09-23T18:16:58.945Z,14.08
2022-09-23T18:19:28.494Z,14.04
2022-09-23T18:22:01.495Z,13.99
2022-09-23T18:24:33.572Z,13.93
2022-09-23T18:27:06.552Z,13.87
2022-09-23T18:29:36.462Z,13.82
2022-09-23T18:32:06.133Z,13.77
2022-09-23T18:34:35.720Z,13.73
2022-09-23T18:37:15.093Z,13.69
2022-09-23T18:39:45.624Z,13.65
2022-09-23T18:42:17.973Z,13.64
2022-09-23T18:44:49.887Z,13.61
2022-09-23T18:47:40.096Z,13.59
2022-09-23T18:50:24.764Z,13.53
2022-09-23T18:52:54.344Z,13.49
2022-09-23T18:55:23.886Z,13.45
2022-09-23T18:57:56.648Z,13.42
2022-09-23T19:00:26.212Z,13.39
2022-09-23T19:02:55.782Z,13.37
2022-09-23T19:05:25.305Z,13.34
2022-09-23T19:07:54.834Z,13.32
2022-09-23T19:10:24.434Z,13.30
2022-09-23T19:12:56.562Z,13.29
2022-09-23T19:15:26.078Z,13.26
2022-09-23T19:17:55.660Z,13.23
2022-09-23T19:20:25.216Z,13.18
2022-09-23T19:22:54.798Z,13.16
2022-09-23T19:25:24.350Z,13.13
2022-09-23T19:27:56.907Z,13.10
2022-09-23T19:30:26.457Z,13.06
2022-09-23T19:32:56.119Z,13.03
2022-09-23T19:35:25.779Z,13.00
2022-09-23T19:37:55.506Z,12.97
2022-09-23T19:40:25.249Z,12.96
2022-09-23T19:42:57.519Z,12.94
2022-09-23T19:45:27.617Z,12.92
2022-09-23T19:47:58.306Z,12.91
2022-09-23T19:50:27.879Z,12.91
2022-09-23T19:53:00.207Z,12.91
2022-09-23T19:55:31.217Z,12.92
2022-09-23T19:58:03.404Z,12.94
2022-09-23T20:00:33.188Z,12.94
2022-09-23T20:03:02.828Z,12.95
2022-09-23T20:05:32.373Z,12.97
2022-09-23T20:08:02.119Z,12.97
2022-09-23T20:10:31.675Z,12.97
2022-09-23T20:13:03.820Z,12.96
2022-09-23T20:15:33.336Z,12.96
2022-09-23T20:18:02.883Z,12.96
2022-09-23T20:20:32.471Z,12.95
2022-09-23T20:23:02.011Z,12.95
2022-09-23T20:25:51.639Z,12.94
2022-09-23T20:28:21.308Z,12.94
2022-09-23T20:30:51.023Z,12.95
2022-09-23T20:33:22.347Z,12.95
2022-09-23T20:35:53.622Z,12.97
2022-09-23T20:38:23.146Z,12.97
2022-09-23T20:40:57.394Z,12.98
2022-09-23T20:43:32.684Z,12.98
2022-09-23T20:46:02.239Z,12.97
2022-09-23T20:48:32.681Z,12.95
2022-09-23T20:51:05.907Z,12.94
2022-09-23T20:53:35.687Z,12.92
2022-09-23T20:56:05.943Z,12.88
2022-09-23T20:58:39.085Z,12.86
2022-09-23T21:01:10.743Z,12.87
2022-09-23T21:03:41.969Z,12.87
2022-09-23T21:06:12.560Z,12.88
2022-09-23T21:08:42.607Z,12.88
2022-09-23T21:11:13.631Z,12.90
2022-09-23T21:13:48.373Z,12.92
2022-09-23T21:16:19.316Z,12.94
2022-09-23T21:18:48.938Z,12.95
2022-09-23T21:21:19.589Z,12.96
2022-09-23T21:23:49.620Z,12.95
2022-09-23T21:26:21.535Z,12.94
2022-09-23T21:28:55.136Z,12.94
2022-09-23T21:31:26.206Z,12.93
2022-09-23T21:33:56.541Z,12.92
2022-09-23T21:36:27.343Z,12.90
2022-09-23T21:38:58.219Z,12.90
2022-09-23T21:41:28.002Z,12.88
2022-09-23T21:44:00.736Z,12.87
2022-09-23T21:46:30.815Z,12.85
2022-09-23T21:49:02.288Z,12.81
2022-09-23T21:51:34.252Z,12.78
2022-09-23T21:54:03.959Z,12.72
2022-09-23T21:56:36.360Z,12.66
2022-09-23T21:59:09.381Z,12.61
2022-09-23T22:01:40.145Z,12.57
2022-09-23T22:04:13.702Z,12.56
2022-09-23T22:06:43.449Z,12.53
2022-09-23T22:09:16.274Z,12.50
2022-09-23T22:11:58.328Z,12.47
2022-09-23T22:14:30.737Z,12.44
2022-09-23T22:17:02.331Z,12.42
2022-09-23T22:19:35.361Z,12.40
2022-09-23T22:22:13.339Z,12.40
2022-09-23T22:24:42.964Z,12.41
2022-09-23T22:27:13.544Z,12.42
2022-09-23T22:29:58.111Z,12.43
2022-09-23T22:32:40.124Z,12.42
2022-09-23T22:35:10.365Z,12.42
2022-09-23T22:37:40.319Z,12.43
2022-09-23T22:40:13.270Z,12.44
2022-09-23T22:42:43.628Z,12.44
2022-09-23T22:45:16.127Z,12.46
2022-09-23T22:47:46.765Z,12.48
2022-09-23T22:50:16.890Z,12.48
2022-09-23T22:52:46.719Z,12.49
2022-09-23T22:55:16.269Z,12.51
2022-09-23T22:57:45.776Z,12.50
2022-09-23T23:00:18.284Z,12.51
2022-09-23T23:02:47.828Z,12.52
2022-09-23T23:05:17.378Z,12.52
2022-09-23T23:07:46.883Z,12.52
2022-09-23T23:10:16.944Z,12.53
2022-09-23T23:12:46.956Z,12.54
2022-09-23T23:15:19.250Z,12.57
2022-09-23T23:17:49.183Z,12.59
2022-09-23T23:20:20.097Z,12.62
2022-09-23T23:22:49.619Z,12.64
2022-09-23T23:25:19.300Z,12.66
2022-09-23T23:27:48.826Z,12.65
2022-09-23T23:30:21.428Z,12.64
2022-09-23T23:32:50.955Z,12.63
2022-09-23T23:35:20.462Z,12.62
2022-09-23T23:37:50.007Z,12.61
2022-09-23T23:40:22.648Z,12.60
2022-09-23T23:42:52.327Z,12.59
2022-09-23T23:45:24.424Z,12.58
2022-09-23T23:47:53.936Z,12.53
2022-09-23T23:50:23.530Z,12.52
2022-09-23T23:52:53.052Z,12.48
2022-09-23T23:55:22.630Z,12.46
2022-09-23T23:57:54.122Z,12.42
